Time;durP1;ratioP1;P1;durP2;ratioP2;P2;SDS_P1;SDS_P2;PMS_P1;PMS_P2;Temp;Humidity;BMP_temperature;BMP_pressure;BME280_temperature;BME280_humidity;BME280_pressure;Samples;Min_cycle;Max_cycle;Signal;HPM_P1;HPM_P2
2022/04/12 00:00:36;;;;;;;22.58;13.85;;;6.60;99.90;;;;;;5028682;28;20037;-74
2022/04/12 00:03:03;;;;;;;21.27;14.32;;;6.60;99.90;;;;;;5029452;28;20038;-74
2022/04/12 00:05:29;;;;;;;20.70;12.95;;;6.60;99.90;;;;;;5026427;28;20029;-74
2022/04/12 00:07:55;;;;;;;18.55;12.90;;;6.60;99.90;;;;;;5029749;28;20052;-74
2022/04/12 00:10:21;;;;;;;21.13;13.15;;;6.60;99.90;;;;;;5029778;28;20036;-74
2022/04/12 00:12:47;;;;;;;17.73;11.88;;;6.50;99.90;;;;;;5021961;28;20042;-74
2022/04/12 00:15:13;;;;;;;20.05;12.80;;;6.50;99.90;;;;;;5026987;28;20392;-74
2022/04/12 00:20:26;;;;;;;20.42;12.68;;;6.50;99.90;;;;;;5034671;28;20049;-74
2022/04/12 00:22:53;;;;;;;19.65;13.95;;;6.40;99.90;;;;;;5034269;28;20033;-74
2022/04/12 00:25:22;;;;;;;19.98;12.32;;;6.40;99.90;;;;;;5030576;28;20116;-74
2022/04/12 00:27:49;;;;;;;20.23;12.98;;;6.40;99.90;;;;;;5030272;28;20046;-74
2022/04/12 00:30:15;;;;;;;17.25;12.68;;;6.50;99.90;;;;;;5025889;28;20041;-74
2022/04/12 00:32:41;;;;;;;15.68;12.10;;;6.50;99.90;;;;;;5023343;28;20037;-74
2022/04/12 00:35:08;;;;;;;19.75;12.57;;;6.50;99.90;;;;;;5027581;28;20045;-74
2022/04/12 00:37:33;;;;;;;19.20;12.75;;;6.50;99.90;;;;;;5033087;28;20490;-74
2022/04/12 00:39:59;;;;;;;20.38;12.88;;;6.50;99.90;;;;;;5031231;28;20048;-74
2022/04/12 00:42:25;;;;;;;16.92;13.15;;;6.50;99.90;;;;;;5023496;28;20033;-74
2022/04/12 00:44:51;;;;;;;19.25;12.77;;;6.50;99.90;;;;;;5029039;28;20573;-74
2022/04/12 00:47:17;;;;;;;17.00;13.10;;;6.40;99.90;;;;;;5030351;28;20079;-74
2022/04/12 00:49:42;;;;;;;15.63;12.13;;;6.40;99.90;;;;;;5029071;28;20045;-74
2022/04/12 00:52:09;;;;;;;19.90;12.45;;;6.40;99.90;;;;;;5031272;28;20145;-74
2022/04/12 00:54:37;;;;;;;19.08;13.68;;;6.30;99.90;;;;;;5023729;28;20450;-74
2022/04/12 00:57:04;;;;;;;21.38;12.65;;;6.30;99.90;;;;;;5028107;28;20050;-74
2022/04/12 00:59:32;;;;;;;16.90;12.90;;;6.20;99.90;;;;;;5028996;28;20069;-74
2022/04/12 01:02:01;;;;;;;20.88;12.73;;;6.20;99.90;;;;;;5030476;28;20498;-74
2022/04/12 01:04:26;;;;;;;18.85;13.02;;;6.10;99.90;;;;;;5031021;28;20120;-74
2022/04/12 01:06:52;;;;;;;23.17;12.55;;;6.10;99.90;;;;;;5020117;28;20550;-74
2022/04/12 01:09:18;;;;;;;17.77;12.98;;;6.00;99.90;;;;;;5004581;28;20045;-74
2022/04/12 01:11:48;;;;;;;18.63;12.25;;;6.00;99.90;;;;;;5020799;28;20038;-74
2022/04/12 01:14:17;;;;;;;17.75;13.57;;;5.90;99.90;;;;;;5023506;28;20464;-74
2022/04/12 01:16:43;;;;;;;17.63;12.73;;;5.90;99.90;;;;;;5025762;28;20041;-74
2022/04/12 01:19:09;;;;;;;16.38;12.07;;;5.80;99.90;;;;;;5024332;28;20525;-74
2022/04/12 01:22:01;;;;;;;17.30;12.23;;;5.80;99.90;;;;;;5021633;28;20052;-75
2022/04/12 01:24:28;;;;;;;18.42;12.50;;;5.80;99.90;;;;;;5020143;28;20056;-74
2022/04/12 01:26:53;;;;;;;19.27;12.35;;;5.70;99.90;;;;;;5024559;28;20123;-74
2022/04/12 01:29:19;;;;;;;16.95;11.65;;;5.70;99.90;;;;;;5026691;28;20069;-74
2022/04/12 01:31:45;;;;;;;17.52;12.50;;;5.70;99.90;;;;;;5021667;28;20045;-74
2022/04/12 01:34:12;;;;;;;16.00;11.45;;;5.60;99.90;;;;;;5025160;28;20236;-74
2022/04/12 01:36:38;;;;;;;17.05;12.43;;;5.60;99.90;;;;;;5056634;28;20490;-74
2022/04/12 01:39:03;;;;;;;18.35;12.80;;;5.60;99.90;;;;;;5023033;28;20037;-74
2022/04/12 01:41:29;;;;;;;18.30;12.70;;;5.60;99.90;;;;;;5014484;28;20489;-74
2022/04/12 01:43:55;;;;;;;21.10;13.00;;;5.60;99.90;;;;;;5036694;28;20719;-74
2022/04/12 01:46:21;;;;;;;17.45;12.27;;;5.50;99.90;;;;;;5028117;28;20069;-74
2022/04/12 01:48:48;;;;;;;15.45;11.70;;;5.50;99.90;;;;;;5012612;28;20057;-74
2022/04/12 01:51:14;;;;;;;20.80;11.93;;;5.50;99.90;;;;;;5024728;28;20045;-74
2022/04/12 01:53:40;;;;;;;20.15;12.38;;;5.40;99.90;;;;;;5024403;28;20042;-74
2022/04/12 01:56:06;;;;;;;16.30;11.65;;;5.40;99.90;;;;;;5025814;28;20045;-74
2022/04/12 01:58:32;;;;;;;18.85;13.10;;;5.40;99.90;;;;;;4999394;28;20045;-74
2022/04/12 02:00:59;;;;;;;18.08;12.75;;;5.40;99.90;;;;;;5028921;28;20038;-74
2022/04/12 02:03:25;;;;;;;20.38;12.82;;;5.40;99.90;;;;;;5024504;28;20207;-74
2022/04/12 02:05:51;;;;;;;18.23;12.80;;;5.30;99.90;;;;;;5005319;28;20522;-74
2022/04/12 02:08:17;;;;;;;18.08;12.85;;;5.20;99.90;;;;;;5022309;28;20406;-74
2022/04/12 02:10:43;;;;;;;20.38;13.13;;;5.20;99.90;;;;;;5013119;28;20041;-74
2022/04/12 02:13:09;;;;;;;18.83;12.40;;;5.10;99.90;;;;;;5024953;28;20048;-74
2022/04/12 02:15:35;;;;;;;21.23;12.90;;;5.10;99.90;;;;;;5027416;28;20095;-74
2022/04/12 02:18:01;;;;;;;17.85;12.90;;;5.00;99.90;;;;;;5019016;28;20458;-74
2022/04/12 02:20:27;;;;;;;17.58;12.23;;;5.00;99.90;;;;;;5023925;28;20139;-74
2022/04/12 02:22:53;;;;;;;19.42;12.35;;;5.00;99.90;;;;;;5025313;28;20069;-74
2022/04/12 02:25:19;;;;;;;18.25;12.60;;;5.00;99.90;;;;;;5027940;28;20081;-74
2022/04/12 02:27:45;;;;;;;18.15;12.82;;;5.00;99.90;;;;;;5023956;28;20041;-74
2022/04/12 02:30:12;;;;;;;19.40;12.55;;;4.90;99.90;;;;;;5020278;28;20068;-74
2022/04/12 02:32:39;;;;;;;20.08;12.52;;;4.90;99.90;;;;;;5022470;28;20033;-74
2022/04/12 02:35:06;;;;;;;18.45;12.13;;;4.80;99.90;;;;;;5016081;28;20049;-74
2022/04/12 02:37:31;;;;;;;18.17;11.80;;;4.80;99.90;;;;;;5022166;28;20044;-74
2022/04/12 02:39:57;;;;;;;18.60;12.35;;;4.80;99.90;;;;;;5021886;28;20041;-74
2022/04/12 02:42:23;;;;;;;20.67;12.15;;;4.70;99.90;;;;;;5025532;28;20041;-74
2022/04/12 02:44:49;;;;;;;18.38;11.80;;;4.70;99.90;;;;;;5023454;28;20338;-74
2022/04/12 02:47:14;;;;;;;16.45;12.13;;;4.70;99.90;;;;;;5002517;28;20045;-74
2022/04/12 02:49:40;;;;;;;16.33;12.18;;;4.70;99.90;;;;;;5010707;28;20045;-74
2022/04/12 02:52:08;;;;;;;17.63;12.95;;;4.70;99.90;;;;;;5023236;28;20033;-74
2022/04/12 02:54:34;;;;;;;16.60;12.23;;;4.70;99.90;;;;;;5024923;28;20063;-74
2022/04/12 02:57:00;;;;;;;17.90;11.10;;;4.70;99.90;;;;;;5024130;28;20037;-74
2022/04/12 02:59:26;;;;;;;26.15;11.82;;;4.80;99.90;;;;;;5026330;28;20063;-74
2022/04/12 03:01:52;;;;;;;18.67;11.05;;;4.70;99.90;;;;;;5024485;28;20111;-74
2022/04/12 03:04:18;;;;;;;16.35;11.65;;;4.70;99.90;;;;;;5024608;28;20038;-74
2022/04/12 03:06:43;;;;;;;13.45;10.82;;;4.60;99.90;;;;;;5025611;28;20474;-74
2022/04/12 03:09:09;;;;;;;17.40;12.05;;;4.70;99.90;;;;;;5023495;28;20052;-74
2022/04/12 03:11:35;;;;;;;17.85;11.90;;;4.60;99.90;;;;;;5021655;28;20043;-74
2022/04/12 03:14:02;;;;;;;18.00;12.07;;;4.70;99.90;;;;;;5023314;28;20112;-74
2022/04/12 03:16:28;;;;;;;17.27;11.70;;;4.70;99.90;;;;;;5025564;28;20116;-74
2022/04/12 03:18:54;;;;;;;15.57;10.90;;;4.60;99.90;;;;;;5024540;28;20570;-74
2022/04/12 03:21:20;;;;;;;20.25;12.05;;;4.60;99.90;;;;;;5027268;28;20040;-74
2022/04/12 03:23:45;;;;;;;16.70;11.43;;;4.60;99.90;;;;;;5027101;28;20087;-74
2022/04/12 03:26:11;;;;;;;16.27;11.95;;;4.60;99.90;;;;;;5016918;28;20241;-74
2022/04/12 03:28:37;;;;;;;17.02;11.95;;;4.60;99.90;;;;;;5008492;28;20499;-74
2022/04/12 03:31:03;;;;;;;16.30;12.30;;;4.60;99.90;;;;;;5019110;28;20045;-74
2022/04/12 03:33:28;;;;;;;17.27;12.55;;;4.50;99.90;;;;;;5025423;28;20044;-74
2022/04/12 03:35:54;;;;;;;17.83;11.77;;;4.50;99.90;;;;;;5024553;28;20037;-74
2022/04/12 03:38:20;;;;;;;15.98;11.93;;;4.50;99.90;;;;;;5016727;28;20061;-74
2022/04/12 03:40:48;;;;;;;16.88;12.70;;;4.60;99.90;;;;;;5024639;28;20059;-74
2022/04/12 03:43:14;;;;;;;20.02;12.48;;;4.50;99.90;;;;;;5016425;28;20034;-74
2022/04/12 03:45:39;;;;;;;17.55;12.27;;;4.60;99.90;;;;;;5014849;28;20045;-74
2022/04/12 03:48:08;;;;;;;19.63;11.80;;;4.50;99.90;;;;;;5023486;28;20494;-74
2022/04/12 03:50:37;;;;;;;15.57;11.45;;;4.60;99.90;;;;;;5021053;28;20501;-74
2022/04/12 03:53:03;;;;;;;16.50;11.13;;;4.60;99.90;;;;;;5025361;28;20044;-74
2022/04/12 03:55:34;;;;;;;16.50;12.02;;;4.50;99.90;;;;;;5026428;28;20041;-74
2022/04/12 03:58:02;;;;;;;18.10;12.45;;;4.50;99.90;;;;;;5023206;28;20416;-74
2022/04/12 04:00:29;;;;;;;18.73;12.27;;;4.60;99.90;;;;;;5016124;28;20135;-74
2022/04/12 04:02:55;;;;;;;18.50;11.50;;;4.60;99.90;;;;;;5025709;28;20044;-74
2022/04/12 04:05:22;;;;;;;18.15;12.38;;;4.50;99.90;;;;;;5021192;28;20076;-74
2022/04/12 04:07:48;;;;;;;18.85;12.90;;;4.50;99.90;;;;;;5018332;28;20037;-74
2022/04/12 04:10:14;;;;;;;16.42;11.65;;;4.50;99.90;;;;;;5021632;28;20061;-74
2022/04/12 04:12:40;;;;;;;16.27;10.88;;;4.50;99.90;;;;;;5011991;28;20076;-74
2022/04/12 04:15:11;;;;;;;15.50;10.63;;;4.40;99.90;;;;;;5026672;28;20053;-74
2022/04/12 04:17:40;;;;;;;17.90;10.40;;;4.30;99.90;;;;;;5019635;28;20117;-74
2022/04/12 04:20:06;;;;;;;17.00;10.63;;;4.20;99.90;;;;;;5027670;28;20611;-74
2022/04/12 04:22:32;;;;;;;17.77;11.70;;;4.00;99.90;;;;;;5022282;28;20041;-74
2022/04/12 04:24:57;;;;;;;15.82;11.52;;;4.00;99.90;;;;;;5018705;28;20042;-74
2022/04/12 04:27:28;;;;;;;18.10;11.60;;;3.90;99.90;;;;;;5021133;28;20368;-74
2022/04/12 04:29:55;;;;;;;18.98;11.95;;;3.90;99.90;;;;;;5024433;28;20029;-74
2022/04/12 04:32:22;;;;;;;19.85;12.25;;;3.90;99.90;;;;;;5020976;28;20048;-74
2022/04/12 04:34:48;;;;;;;18.95;11.88;;;3.90;99.90;;;;;;5024973;28;20037;-74
2022/04/12 04:37:13;;;;;;;17.33;11.68;;;3.90;99.90;;;;;;5024700;28;20368;-74
2022/04/12 04:39:39;;;;;;;17.40;12.38;;;4.10;99.90;;;;;;5007506;28;20499;-74
2022/04/12 04:42:05;;;;;;;16.88;12.02;;;4.10;99.90;;;;;;5025413;28;20128;-74
2022/04/12 04:44:31;;;;;;;18.55;11.93;;;4.00;99.90;;;;;;5026787;28;20045;-74
2022/04/12 04:46:57;;;;;;;18.45;12.25;;;4.00;99.90;;;;;;5016599;28;20390;-74
2022/04/12 04:49:23;;;;;;;19.50;11.90;;;4.00;99.90;;;;;;5027439;28;20483;-74
2022/04/12 04:51:49;;;;;;;22.35;12.70;;;4.10;99.90;;;;;;5022241;28;20046;-74
2022/04/12 04:54:15;;;;;;;17.88;12.27;;;4.10;99.90;;;;;;5021787;28;20124;-74
2022/04/12 04:56:40;;;;;;;17.38;11.98;;;4.00;99.90;;;;;;5023985;28;20051;-74
2022/04/12 04:59:06;;;;;;;18.65;12.25;;;4.10;99.90;;;;;;5016999;28;20069;-74
2022/04/12 05:01:32;;;;;;;17.05;12.02;;;4.10;99.90;;;;;;5028779;28;20068;-74
2022/04/12 05:03:58;;;;;;;19.52;12.35;;;4.10;99.90;;;;;;5001876;28;20042;-74
2022/04/12 05:06:23;;;;;;;20.00;12.00;;;4.10;99.90;;;;;;5005993;28;20041;-74
2022/04/12 05:08:49;;;;;;;16.35;11.07;;;4.10;99.90;;;;;;5023952;28;20080;-74
2022/04/12 05:11:15;;;;;;;18.45;12.02;;;4.20;99.90;;;;;;5024602;28;20038;-74
2022/04/12 05:13:40;;;;;;;20.00;11.63;;;4.00;99.90;;;;;;5024193;28;20030;-74
2022/04/12 05:16:06;;;;;;;16.63;11.30;;;4.10;99.90;;;;;;5028703;28;20079;-74
2022/04/12 05:18:32;;;;;;;17.05;11.45;;;4.00;99.90;;;;;;5027614;28;20038;-74
2022/04/12 05:20:58;;;;;;;18.23;12.60;;;4.00;99.90;;;;;;5017911;28;20128;-74
2022/04/12 05:23:23;;;;;;;19.80;12.13;;;4.00;99.90;;;;;;5024438;28;20042;-74
2022/04/12 05:25:53;;;;;;;18.08;11.82;;;3.90;99.90;;;;;;5023282;28;20040;-74
2022/04/12 05:28:20;;;;;;;17.75;11.15;;;3.90;99.90;;;;;;5025464;28;20037;-74
2022/04/12 05:30:46;;;;;;;19.00;13.00;;;3.90;99.90;;;;;;5027739;28;20049;-74
2022/04/12 05:33:12;;;;;;;20.58;12.70;;;3.90;99.90;;;;;;5023880;28;20045;-74
2022/04/12 05:35:38;;;;;;;18.48;11.93;;;3.90;99.90;;;;;;5021091;28;20759;-74
2022/04/12 05:38:06;;;;;;;19.00;12.35;;;3.90;99.90;;;;;;5030955;28;20048;-74
2022/04/12 05:40:32;;;;;;;22.42;12.48;;;3.90;99.90;;;;;;5023169;28;20440;-74
2022/04/12 05:42:58;;;;;;;16.13;12.18;;;3.90;99.90;;;;;;5020670;28;20120;-74
2022/04/12 05:45:23;;;;;;;18.85;11.77;;;4.00;99.90;;;;;;5012293;28;20080;-74
2022/04/12 05:47:51;;;;;;;16.15;11.55;;;4.00;99.90;;;;;;5027571;28;20061;-74
2022/04/12 05:50:19;;;;;;;20.02;12.00;;;4.10;99.90;;;;;;5024205;28;20042;-74
2022/04/12 05:52:45;;;;;;;18.75;12.13;;;4.20;99.90;;;;;;5024739;28;20034;-74
2022/04/12 05:55:15;;;;;;;20.13;11.90;;;4.30;99.90;;;;;;5005385;28;20057;-74
2022/04/12 05:58:10;;;;;;;20.27;12.23;;;4.50;99.90;;;;;;5028051;28;20049;-74
2022/04/12 06:00:36;;;;;;;19.58;12.52;;;4.70;99.90;;;;;;5022851;28;20076;-74
2022/04/12 06:03:05;;;;;;;21.58;12.68;;;4.80;99.90;;;;;;5024307;28;20068;-74
2022/04/12 06:05:32;;;;;;;25.13;13.15;;;5.00;99.90;;;;;;5026815;28;20431;-74
2022/04/12 06:07:59;;;;;;;18.80;12.48;;;5.20;99.90;;;;;;5003216;28;20653;-74
2022/04/12 06:10:25;;;;;;;22.02;12.82;;;5.40;99.90;;;;;;5013707;28;20290;-74
2022/04/12 06:12:51;;;;;;;17.35;12.60;;;5.60;99.90;;;;;;5024405;28;20041;-74
2022/04/12 06:15:19;;;;;;;21.48;12.98;;;5.80;99.90;;;;;;5020252;28;20076;-74
2022/04/12 06:17:44;;;;;;;18.88;12.65;;;6.00;99.90;;;;;;5028967;28;20046;-74
2022/04/12 06:20:14;;;;;;;23.17;12.43;;;6.10;99.90;;;;;;5023652;28;20045;-74
2022/04/12 06:22:41;;;;;;;17.65;11.68;;;6.20;99.90;;;;;;5024571;28;20041;-74
2022/04/12 06:25:08;;;;;;;17.90;11.70;;;6.40;99.90;;;;;;5008080;28;20048;-74
2022/04/12 06:27:34;;;;;;;18.27;12.35;;;6.50;99.90;;;;;;5020930;28;20046;-74
2022/04/12 06:30:14;;;;;;;18.23;12.15;;;6.60;99.90;;;;;;5026053;28;20037;-74
2022/04/12 06:32:41;;;;;;;17.02;11.48;;;6.70;99.90;;;;;;5058750;28;20513;-74
2022/04/12 06:35:11;;;;;;;17.13;11.57;;;6.80;99.90;;;;;;5021635;28;20149;-74
2022/04/12 06:37:39;;;;;;;17.00;10.25;;;6.90;99.90;;;;;;5027127;28;20041;-74
2022/04/12 06:40:07;;;;;;;15.35;10.82;;;7.00;99.90;;;;;;5001180;28;20605;-74
2022/04/12 06:42:33;;;;;;;16.90;10.85;;;7.10;99.90;;;;;;5023551;28;20069;-74
2022/04/12 06:44:58;;;;;;;19.05;11.43;;;7.20;99.90;;;;;;5020067;28;20140;-74
2022/04/12 06:47:24;;;;;;;14.05;10.30;;;7.40;99.90;;;;;;5022871;28;20240;-74
2022/04/12 06:49:51;;;;;;;17.80;10.13;;;7.50;99.90;;;;;;5018628;28;20041;-74
2022/04/12 06:52:19;;;;;;;16.17;9.70;;;7.70;99.90;;;;;;5021774;28;20242;-74
2022/04/12 06:54:45;;;;;;;15.80;10.27;;;7.80;99.90;;;;;;5025528;28;20380;-74
2022/04/12 06:57:11;;;;;;;14.43;10.27;;;7.90;99.90;;;;;;5025319;28;20043;-74
2022/04/12 06:59:37;;;;;;;14.52;9.85;;;8.00;99.90;;;;;;5023454;28;20132;-74
2022/04/12 07:02:03;;;;;;;16.38;9.60;;;8.10;99.90;;;;;;5024726;28;20159;-74
2022/04/12 07:04:29;;;;;;;17.35;10.15;;;8.10;99.90;;;;;;5031848;28;20037;-74
2022/04/12 07:06:56;;;;;;;14.55;9.73;;;8.20;99.90;;;;;;5034801;28;20040;-74
2022/04/12 07:09:27;;;;;;;18.88;11.35;;;8.20;99.90;;;;;;5023986;28;20049;-74
2022/04/12 07:11:53;;;;;;;15.93;9.98;;;8.20;99.90;;;;;;5030001;28;20041;-74
2022/04/12 07:14:19;;;;;;;15.15;10.27;;;8.30;99.90;;;;;;5041934;28;20704;-74
2022/04/12 07:16:46;;;;;;;15.32;10.13;;;8.30;99.90;;;;;;5031438;28;20102;-74
2022/04/12 07:19:12;;;;;;;16.00;9.50;;;8.40;99.90;;;;;;5028753;28;20140;-74
2022/04/12 07:21:37;;;;;;;14.13;9.05;;;8.40;99.90;;;;;;5023768;28;20551;-74
2022/04/12 07:24:03;;;;;;;16.73;9.38;;;8.50;99.90;;;;;;5025912;28;20458;-74
2022/04/12 07:26:30;;;;;;;12.32;8.88;;;8.70;99.90;;;;;;5022416;28;20080;-74
2022/04/12 07:28:56;;;;;;;12.40;9.80;;;9.00;99.90;;;;;;5023480;28;20048;-74
2022/04/12 07:31:22;;;;;;;16.75;9.25;;;9.40;99.90;;;;;;4997422;28;20032;-74
2022/04/12 07:33:48;;;;;;;14.52;9.38;;;9.70;99.90;;;;;;5023803;28;20037;-74
2022/04/12 07:36:14;;;;;;;13.07;9.23;;;10.00;99.90;;;;;;5014654;28;20040;-74
2022/04/12 07:38:41;;;;;;;11.85;8.50;;;10.10;99.90;;;;;;5022247;28;20041;-74
2022/04/12 07:41:07;;;;;;;13.20;9.55;;;10.10;99.90;;;;;;5023572;28;20099;-74
2022/04/12 07:43:33;;;;;;;12.82;8.40;;;10.40;99.90;;;;;;5022255;28;20118;-74
2022/04/12 07:45:59;;;;;;;11.80;8.40;;;11.00;99.90;;;;;;5024997;28;20112;-74
2022/04/12 07:48:24;;;;;;;12.52;8.93;;;11.70;99.90;;;;;;5040408;28;20504;-74
2022/04/12 07:50:50;;;;;;;11.82;9.27;;;12.40;99.90;;;;;;5029493;28;20029;-74
2022/04/12 07:53:16;;;;;;;12.00;9.07;;;13.00;99.90;;;;;;5029997;28;20091;-74
2022/04/12 07:55:41;;;;;;;15.38;8.95;;;13.50;98.80;;;;;;5028955;28;20736;-74
2022/04/12 07:58:07;;;;;;;11.90;8.10;;;13.80;98.10;;;;;;5011534;28;20490;-74
2022/04/12 08:00:33;;;;;;;14.15;9.23;;;14.10;96.90;;;;;;5028887;28;20057;-74
2022/04/12 08:02:58;;;;;;;12.70;8.50;;;14.30;96.80;;;;;;5027638;28;20087;-74
2022/04/12 08:05:24;;;;;;;12.93;8.85;;;14.60;94.90;;;;;;5028924;28;20045;-74
2022/04/12 08:07:50;;;;;;;11.10;8.40;;;14.80;95.00;;;;;;5029220;28;20076;-74
2022/04/12 08:10:19;;;;;;;14.38;8.50;;;15.10;94.80;;;;;;5028633;28;20049;-75
2022/04/12 08:12:46;;;;;;;11.60;8.23;;;15.30;94.10;;;;;;5031259;28;20030;-75
2022/04/12 08:15:15;;;;;;;9.50;7.90;;;15.50;93.20;;;;;;5033353;28;20518;-75
2022/04/12 08:17:45;;;;;;;11.75;8.48;;;15.60;92.30;;;;;;5031736;28;20042;-75
2022/04/12 08:20:13;;;;;;;12.43;8.10;;;15.80;92.60;;;;;;5031872;28;20446;-75
2022/04/12 08:22:40;;;;;;;16.55;8.98;;;16.10;90.90;;;;;;5048627;28;20060;-75
2022/04/12 08:25:07;;;;;;;11.52;8.43;;;16.40;92.40;;;;;;5032793;28;20080;-75
2022/04/12 08:27:33;;;;;;;12.13;9.15;;;16.30;90.20;;;;;;5033554;28;20037;-75
2022/04/12 08:29:59;;;;;;;12.48;8.63;;;16.50;91.20;;;;;;5033448;28;20036;-75
2022/04/12 08:32:24;;;;;;;13.30;8.82;;;16.60;91.00;;;;;;5034053;28;20045;-75
2022/04/12 08:34:50;;;;;;;13.20;9.02;;;16.50;90.50;;;;;;5033148;28;20069;-75
2022/04/12 08:37:16;;;;;;;15.55;8.70;;;16.70;90.00;;;;;;5032035;28;20049;-75
2022/04/12 08:39:42;;;;;;;9.75;8.45;;;17.00;90.00;;;;;;5031783;28;20049;-75
2022/04/12 08:42:08;;;;;;;11.85;8.48;;;16.80;88.10;;;;;;5032283;28;20069;-75
2022/04/12 08:44:36;;;;;;;9.63;8.13;;;16.50;89.20;;;;;;5033088;28;20128;-75
2022/04/12 08:47:04;;;;;;;12.15;8.57;;;16.60;88.40;;;;;;5032954;28;20038;-75
2022/04/12 08:49:31;;;;;;;9.13;7.85;;;16.80;88.30;;;;;;5032351;28;20042;-75
2022/04/12 08:51:56;;;;;;;10.25;7.78;;;17.00;88.10;;;;;;5031322;28;20041;-75
2022/04/12 08:54:23;;;;;;;15.05;9.05;;;17.10;86.90;;;;;;5032119;28;20045;-74
2022/04/12 08:56:50;;;;;;;10.57;8.18;;;17.00;85.40;;;;;;5014800;28;20576;-74
2022/04/12 08:59:17;;;;;;;11.70;8.25;;;17.20;86.80;;;;;;5031442;28;20061;-74
2022/04/12 09:01:44;;;;;;;11.77;9.07;;;17.10;86.70;;;;;;5032541;28;20047;-74
2022/04/12 09:04:11;;;;;;;10.82;8.90;;;17.90;87.00;;;;;;5031963;28;20060;-74
2022/04/12 09:06:54;;;;;;;16.50;9.02;;;17.80;85.00;;;;;;5031625;28;20037;-75
2022/04/12 09:09:23;;;;;;;11.00;8.20;;;18.00;84.00;;;;;;5033159;28;20033;-74
2022/04/12 09:12:02;;;;;;;12.77;8.30;;;18.30;84.40;;;;;;5033115;28;20029;-74
2022/04/12 09:14:46;;;;;;;11.50;8.25;;;18.20;84.90;;;;;;5031369;28;20052;-74
2022/04/12 09:17:20;;;;;;;10.00;8.35;;;18.60;85.30;;;;;;5032772;28;20056;-75
2022/04/12 09:19:53;;;;;;;11.23;8.60;;;18.70;82.50;;;;;;5032785;28;20045;-74
2022/04/12 09:22:21;;;;;;;12.48;8.60;;;18.70;80.70;;;;;;5034379;28;20044;-74
2022/04/12 09:24:47;;;;;;;11.32;7.78;;;18.90;82.30;;;;;;5030074;28;20674;-75
2022/04/12 09:27:21;;;;;;;12.00;8.35;;;18.90;81.50;;;;;;5031667;28;20401;-75
2022/04/12 09:29:59;;;;;;;9.48;8.20;;;19.10;79.50;;;;;;5032719;28;20116;-74
2022/04/12 09:32:28;;;;;;;9.15;7.78;;;18.80;79.60;;;;;;5032433;28;20041;-75
2022/04/12 09:34:55;;;;;;;11.15;8.10;;;19.10;80.80;;;;;;5031643;28;20123;-75
2022/04/12 09:37:24;;;;;;;9.93;8.35;;;19.40;80.90;;;;;;5030852;28;20041;-75
2022/04/12 09:39:59;;;;;;;11.02;7.88;;;19.20;80.30;;;;;;5032379;28;20120;-74
2022/04/12 09:42:57;;;;;;;9.25;7.50;;;18.70;79.50;;;;;;5030907;28;20041;-75
2022/04/12 09:45:30;;;;;;;14.82;8.48;;;18.70;79.60;;;;;;5031746;28;20128;-75
2022/04/12 09:47:58;;;;;;;10.93;7.75;;;18.40;80.20;;;;;;5031492;28;20036;-75
2022/04/12 09:50:26;;;;;;;8.95;7.60;;;18.50;80.30;;;;;;5014023;28;20490;-75
2022/04/12 09:53:03;;;;;;;9.27;7.95;;;19.10;80.70;;;;;;5031913;28;20094;-75
2022/04/12 09:55:33;;;;;;;10.55;8.13;;;19.20;79.60;;;;;;5031314;28;20077;-74
2022/04/12 09:58:00;;;;;;;10.10;8.20;;;19.20;79.30;;;;;;5031758;28;20686;-74
2022/04/12 10:00:29;;;;;;;11.07;7.65;;;19.00;78.80;;;;;;5031582;28;20546;-75
2022/04/12 10:03:06;;;;;;;10.85;8.15;;;18.80;79.40;;;;;;5031899;28;20037;-75
2022/04/12 10:05:31;;;;;;;9.40;7.28;;;19.30;79.50;;;;;;5030959;28;20511;-75
2022/04/12 10:07:59;;;;;;;11.27;7.60;;;19.20;78.10;;;;;;5030795;28;20075;-74
2022/04/12 10:10:26;;;;;;;11.38;8.38;;;19.50;79.40;;;;;;5013397;28;20071;-75
2022/04/12 10:12:56;;;;;;;12.18;7.97;;;20.00;79.50;;;;;;5030772;28;20037;-74
2022/04/12 10:15:24;;;;;;;12.55;8.15;;;20.00;77.70;;;;;;5030920;28;20084;-75
2022/04/12 10:17:50;;;;;;;10.40;8.70;;;20.10;78.20;;;;;;5029546;28;20473;-75
2022/04/12 10:20:18;;;;;;;10.13;8.27;;;20.20;77.80;;;;;;5013831;28;20041;-75
2022/04/12 10:22:45;;;;;;;11.00;7.97;;;19.90;77.40;;;;;;5030699;28;20483;-74
2022/04/12 10:25:15;;;;;;;9.57;8.27;;;19.60;77.70;;;;;;5028199;28;20037;-74
2022/04/12 10:27:41;;;;;;;10.38;7.18;;;19.50;78.30;;;;;;5031206;28;20037;-74
2022/04/12 10:30:21;;;;;;;11.30;7.10;;;19.20;77.30;;;;;;5013030;28;20041;-75
2022/04/12 10:33:02;;;;;;;11.55;8.10;;;19.20;78.10;;;;;;5030889;28;20345;-75
2022/04/12 10:35:47;;;;;;;11.60;7.90;;;19.20;78.00;;;;;;5030098;28;20604;-75
2022/04/12 10:38:18;;;;;;;10.57;7.68;;;19.00;78.10;;;;;;5029385;28;20034;-74
2022/04/12 10:40:47;;;;;;;10.53;7.17;;;19.30;78.20;;;;;;5030144;28;20038;-74
2022/04/12 10:43:14;;;;;;;12.05;7.53;;;19.50;76.70;;;;;;5028121;28;20184;-75
2022/04/12 10:45:50;;;;;;;11.45;7.75;;;19.30;76.40;;;;;;5028498;28;20045;-75
2022/04/12 10:48:24;;;;;;;13.27;8.13;;;19.50;76.20;;;;;;5030612;28;20041;-75
2022/04/12 10:50:56;;;;;;;10.85;7.65;;;19.80;77.30;;;;;;5061859;28;20044;-75
2022/04/12 10:53:39;;;;;;;11.52;7.63;;;19.80;76.40;;;;;;5029285;28;20119;-74
2022/04/12 10:56:13;;;;;;;10.57;7.60;;;20.00;74.20;;;;;;5012500;28;20275;-74
2022/04/12 10:58:40;;;;;;;14.48;8.32;;;19.90;74.00;;;;;;5029590;28;20037;-74
2022/04/12 11:01:27;;;;;;;14.02;7.63;;;19.80;74.50;;;;;;5011829;28;20076;-74
2022/04/12 11:03:54;;;;;;;11.73;7.80;;;19.80;74.90;;;;;;5027694;28;20030;-74
2022/04/12 11:06:25;;;;;;;13.70;8.23;;;20.00;75.60;;;;;;5030075;28;20057;-74
2022/04/12 11:09:16;;;;;;;12.07;7.85;;;20.20;75.50;;;;;;5027629;28;20140;-74
2022/04/12 11:11:52;;;;;;;10.90;7.70;;;20.10;74.10;;;;;;5028962;28;20406;-74
2022/04/12 11:14:32;;;;;;;12.27;7.80;;;20.10;74.60;;;;;;5028492;28;20037;-74
2022/04/12 11:17:01;;;;;;;13.40;8.43;;;20.10;74.20;;;;;;5028150;28;20383;-74
2022/04/12 11:19:27;;;;;;;10.95;8.25;;;20.00;74.90;;;;;;5029412;28;20038;-73
2022/04/12 11:21:56;;;;;;;9.85;7.93;;;20.20;75.20;;;;;;5028543;28;20037;-74
2022/04/12 11:24:23;;;;;;;11.90;8.00;;;20.40;75.00;;;;;;5029470;28;20037;-74
2022/04/12 11:27:02;;;;;;;12.95;8.10;;;20.10;75.30;;;;;;5028485;28;20057;-74
2022/04/12 11:29:28;;;;;;;12.43;7.70;;;19.90;76.60;;;;;;5029206;28;20044;-74
2022/04/12 11:31:55;;;;;;;10.68;7.90;;;20.10;77.50;;;;;;5029681;28;20447;-74
2022/04/12 11:34:26;;;;;;;11.07;7.60;;;20.20;76.10;;;;;;5029492;28;20041;-74
2022/04/12 11:36:54;;;;;;;11.57;8.10;;;20.20;74.80;;;;;;5012088;28;20041;-74
2022/04/12 11:39:25;;;;;;;12.18;8.07;;;20.30;75.80;;;;;;5029895;28;20041;-74
2022/04/12 11:41:59;;;;;;;12.52;8.52;;;20.00;74.10;;;;;;5030345;28;20041;-74
2022/04/12 11:44:25;;;;;;;12.40;8.35;;;19.90;76.10;;;;;;5029401;28;20100;-74
2022/04/12 11:47:00;;;;;;;13.27;8.70;;;19.80;75.60;;;;;;5028717;28;20467;-74
2022/04/12 11:49:40;;;;;;;12.75;9.15;;;19.90;75.70;;;;;;5026317;28;20041;-74
2022/04/12 11:52:11;;;;;;;10.73;8.50;;;19.70;75.80;;;;;;5027427;28;20100;-74
2022/04/12 11:54:45;;;;;;;9.85;7.70;;;19.80;77.20;;;;;;5029343;28;20051;-74
2022/04/12 11:57:24;;;;;;;11.00;8.60;;;20.00;78.90;;;;;;5027644;28;20095;-74
2022/04/12 11:59:56;;;;;;;11.23;8.20;;;19.60;74.70;;;;;;5029792;28;20057;-74
2022/04/12 12:02:23;;;;;;;11.05;8.00;;;19.50;75.60;;;;;;5029669;28;20037;-74
2022/04/12 12:04:50;;;;;;;11.32;8.75;;;19.30;75.50;;;;;;5027652;28;20066;-74
2022/04/12 12:07:17;;;;;;;12.95;9.40;;;19.20;74.10;;;;;;5030033;28;20041;-74
2022/04/12 12:10:07;;;;;;;14.35;8.63;;;19.10;76.60;;;;;;5029809;28;20041;-74
2022/04/12 12:12:38;;;;;;;17.23;9.60;;;19.20;75.10;;;;;;5029965;28;20033;-74
2022/04/12 12:15:27;;;;;;;15.13;8.48;;;19.20;75.90;;;;;;5028716;28;20092;-74
2022/04/12 12:17:58;;;;;;;12.93;9.02;;;19.70;78.90;;;;;;5029768;28;20054;-74
2022/04/12 12:20:26;;;;;;;14.88;8.60;;;20.10;75.10;;;;;;5023531;28;20491;-74
2022/04/12 12:22:55;;;;;;;13.10;8.55;;;20.30;76.20;;;;;;5029259;28;20108;-74
2022/04/12 12:25:42;;;;;;;13.57;9.27;;;20.40;72.40;;;;;;5029690;28;20046;-74
2022/04/12 12:28:16;;;;;;;12.98;8.90;;;20.40;76.60;;;;;;5025397;28;20492;-74
2022/04/12 12:30:46;;;;;;;13.45;9.25;;;20.10;75.20;;;;;;5029327;28;20176;-75
2022/04/12 12:33:13;;;;;;;15.60;9.57;;;20.30;76.00;;;;;;5027394;28;20037;-74
2022/04/12 12:35:44;;;;;;;14.68;8.82;;;20.60;77.20;;;;;;5029168;28;20033;-75
2022/04/12 12:38:12;;;;;;;14.25;9.02;;;21.00;77.10;;;;;;5042183;28;20052;-75
2022/04/12 12:40:39;;;;;;;18.23;9.10;;;21.30;77.40;;;;;;5029215;28;20042;-75
2022/04/12 12:43:07;;;;;;;17.13;10.30;;;21.70;77.20;;;;;;5029231;28;20085;-75
2022/04/12 12:45:37;;;;;;;14.45;9.60;;;21.90;76.50;;;;;;5028322;28;20538;-75